createdAt,value
2018-01-13T00:00:26.092Z,6.9
2018-01-13T00:01:27.476Z,6.7
2018-01-13T00:02:28.859Z,6.7
2018-01-13T00:03:30.243Z,6.8
2018-01-13T00:04:31.627Z,6.8
2018-01-13T00:05:33.012Z,6.8
2018-01-13T00:06:34.396Z,6.8
2018-01-13T00:07:35.783Z,6.7
2018-01-13T00:08:37.164Z,6.7
2018-01-13T00:09:38.552Z,6.7
2018-01-13T00:10:39.933Z,6.7
2018-01-13T00:11:41.318Z,6.8
2018-01-13T00:12:42.703Z,6.9
2018-01-13T00:13:44.090Z,6.7
2018-01-13T00:14:45.476Z,6.8
2018-01-13T00:15:46.887Z,6.8
2018-01-13T00:16:48.270Z,6.9
2018-01-13T00:17:49.658Z,6.7
2018-01-13T00:18:51.038Z,6.8
2018-01-13T00:19:52.426Z,6.8
2018-01-13T00:20:53.810Z,6.8
2018-01-13T00:21:55.196Z,6.8
2018-01-13T00:22:56.580Z,6.8
2018-01-13T00:23:57.967Z,6.7
2018-01-13T00:24:59.354Z,6.8
2018-01-13T00:26:00.739Z,6.8
2018-01-13T00:27:02.124Z,6.8
2018-01-13T00:28:03.509Z,6.9
2018-01-13T00:29:04.896Z,6.8
2018-01-13T00:30:06.279Z,6.8
2018-01-13T00:31:07.663Z,6.7
2018-01-13T00:32:09.049Z,6.7
2018-01-13T00:33:10.432Z,6.7
2018-01-13T00:34:11.824Z,6.8
2018-01-13T00:35:13.218Z,6.7
2018-01-13T00:36:14.631Z,6.7
2018-01-13T00:37:16.014Z,6.6
2018-01-13T00:38:17.400Z,6.8
2018-01-13T00:39:18.784Z,6.7
2018-01-13T00:40:20.169Z,6.7
2018-01-13T00:41:21.554Z,6.7
2018-01-13T00:42:22.938Z,6.7
2018-01-13T00:43:24.327Z,6.7
2018-01-13T00:44:25.709Z,6.7
2018-01-13T00:45:27.087Z,6.6
2018-01-13T00:46:28.474Z,6.7
2018-01-13T00:47:29.861Z,6.7
2018-01-13T00:48:31.249Z,6.7
2018-01-13T00:49:32.630Z,6.6
2018-01-13T00:50:34.016Z,6.7
2018-01-13T00:51:35.400Z,6.6
2018-01-13T00:52:36.784Z,6.7
2018-01-13T00:53:38.167Z,6.7
2018-01-13T00:54:39.552Z,6.7
2018-01-13T00:55:40.939Z,6.7
2018-01-13T00:56:42.326Z,6.6
2018-01-13T00:57:43.711Z,6.6
2018-01-13T00:58:45.193Z,6.6
2018-01-13T00:59:46.577Z,6.7
2018-01-13T01:00:47.963Z,6.7
2018-01-13T01:01:49.348Z,6.6
2018-01-13T01:02:50.733Z,6.5
2018-01-13T01:03:52.118Z,6.5
2018-01-13T01:04:53.506Z,6.6
2018-01-13T01:05:54.961Z,6.6
2018-01-13T01:06:56.346Z,6.6
2018-01-13T01:07:57.730Z,6.5
2018-01-13T01:08:59.120Z,6.6
2018-01-13T01:10:00.501Z,6.5
2018-01-13T01:11:01.889Z,6.6
2018-01-13T01:12:03.274Z,6.6
2018-01-13T01:13:04.657Z,6.6
2018-01-13T01:14:06.040Z,6.5
2018-01-13T01:15:07.424Z,6.5
2018-01-13T01:16:08.808Z,6.4
2018-01-13T01:17:10.193Z,6.5
2018-01-13T01:18:11.580Z,6.4
2018-01-13T01:19:13.061Z,6.4
2018-01-13T01:20:14.441Z,6.4
2018-01-13T01:21:15.827Z,6.4
2018-01-13T01:22:17.211Z,6.4
2018-01-13T01:23:18.597Z,6.5
2018-01-13T01:24:19.981Z,6.5
2018-01-13T01:25:21.376Z,6.4
2018-01-13T01:26:22.756Z,6.3
2018-01-13T01:27:24.139Z,6.3
2018-01-13T01:28:25.520Z,6.3
2018-01-13T01:29:26.906Z,6.3
2018-01-13T01:30:28.292Z,6.4
2018-01-13T01:31:29.676Z,6.3
2018-01-13T01:32:31.060Z,6.3
2018-01-13T01:33:32.450Z,6.4
2018-01-13T01:34:33.979Z,6.3
2018-01-13T01:35:35.361Z,6.3
2018-01-13T01:36:36.746Z,6.2
2018-01-13T01:37:38.131Z,6.4
2018-01-13T01:38:39.519Z,6.3
2018-01-13T01:39:40.902Z,6.2
2018-01-13T01:40:42.338Z,6.3
2018-01-13T01:41:43.671Z,6.3
2018-01-13T01:42:45.057Z,6.3
2018-01-13T01:43:46.441Z,6.3
2018-01-13T01:44:47.825Z,6.3
2018-01-13T01:45:49.211Z,6.3
2018-01-13T01:46:50.602Z,6.3
2018-01-13T01:47:51.978Z,6.2
2018-01-13T01:48:53.360Z,6.3
2018-01-13T01:49:54.748Z,6.3
2018-01-13T01:50:56.135Z,6.3
2018-01-13T01:51:57.513Z,6.3
2018-01-13T01:52:58.899Z,6.3
2018-01-13T01:54:00.284Z,6.3
2018-01-13T01:55:01.671Z,6.3
2018-01-13T01:56:03.053Z,6.3
2018-01-13T01:57:04.437Z,6.3
2018-01-13T01:58:05.821Z,6.3
2018-01-13T01:59:07.206Z,6.3
2018-01-13T02:00:08.590Z,6.2
2018-01-13T02:01:09.977Z,6.3
2018-01-13T02:02:11.381Z,6.2
2018-01-13T02:03:12.775Z,6.1
2018-01-13T02:04:14.160Z,6.2
2018-01-13T02:05:15.542Z,6.2
2018-01-13T02:06:16.928Z,6.2
2018-01-13T02:07:18.311Z,6.2
2018-01-13T02:08:19.699Z,6.2
2018-01-13T02:09:21.083Z,6.1
2018-01-13T02:10:22.467Z,6.1
2018-01-13T02:11:23.851Z,6.2
2018-01-13T02:12:25.238Z,6.1
2018-01-13T02:13:26.620Z,6.1
2018-01-13T02:14:28.002Z,6.0
2018-01-13T02:15:29.390Z,6.1
2018-01-13T02:16:30.777Z,6.0
2018-01-13T02:17:32.159Z,6.0
2018-01-13T02:18:33.542Z,6.0
2018-01-13T02:19:34.926Z,6.0
2018-01-13T02:20:36.312Z,6.0
2018-01-13T02:21:37.696Z,6.0
2018-01-13T02:22:39.079Z,6.0
2018-01-13T02:23:40.467Z,5.9
2018-01-13T02:24:41.849Z,6.0
2018-01-13T02:25:43.233Z,5.9
2018-01-13T02:26:44.617Z,6.0
2018-01-13T02:27:46.003Z,6.0
2018-01-13T02:28:47.388Z,6.0
2018-01-13T02:29:48.773Z,6.1
2018-01-13T02:30:50.160Z,6.0
2018-01-13T02:31:51.543Z,6.0
2018-01-13T02:32:52.925Z,6.0
2018-01-13T02:33:54.308Z,6.0
2018-01-13T02:34:55.693Z,6.0
2018-01-13T02:35:57.078Z,6.0
2018-01-13T02:36:58.536Z,6.0
2018-01-13T02:37:59.923Z,6.1
2018-01-13T02:39:01.312Z,6.2
2018-01-13T02:40:02.687Z,6.1
2018-01-13T02:41:04.071Z,6.2
2018-01-13T02:42:05.457Z,6.2
2018-01-13T02:43:06.841Z,6.2
2018-01-13T02:44:08.227Z,6.1
2018-01-13T02:45:09.631Z,6.2
2018-01-13T02:46:11.078Z,6.2
2018-01-13T02:47:12.458Z,6.3
2018-01-13T02:48:13.839Z,6.2
2018-01-13T02:49:15.224Z,6.2
2018-01-13T02:50:16.611Z,6.2
2018-01-13T02:51:17.994Z,6.3
2018-01-13T02:52:19.383Z,6.3
2018-01-13T02:53:20.765Z,6.4
2018-01-13T02:54:22.148Z,6.3
2018-01-13T02:55:23.532Z,6.3
2018-01-13T02:56:24.915Z,6.2
2018-01-13T02:57:26.302Z,6.3
2018-01-13T02:58:27.684Z,6.4
2018-01-13T02:59:29.071Z,6.4
2018-01-13T03:00:30.464Z,6.4
2018-01-13T03:01:31.838Z,6.5
2018-01-13T03:02:33.227Z,6.4
2018-01-13T03:03:34.608Z,6.5
2018-01-13T03:04:36.036Z,6.5
2018-01-13T03:05:37.381Z,6.5
2018-01-13T03:06:38.769Z,6.5
2018-01-13T03:07:40.149Z,6.5
2018-01-13T03:08:41.534Z,6.5
2018-01-13T03:09:42.919Z,6.5
2018-01-13T03:10:44.304Z,6.5
2018-01-13T03:11:45.690Z,6.6
2018-01-13T03:12:47.073Z,6.5
2018-01-13T03:13:48.459Z,6.5
2018-01-13T03:14:49.844Z,6.6
2018-01-13T03:15:51.229Z,6.6
2018-01-13T03:16:52.611Z,6.5
2018-01-13T03:17:53.993Z,6.5
2018-01-13T03:18:55.385Z,6.6
2018-01-13T03:19:56.765Z,6.5
2018-01-13T03:20:58.150Z,6.6
2018-01-13T03:21:59.536Z,6.7
2018-01-13T03:23:00.917Z,6.5
2018-01-13T03:24:02.306Z,6.6
2018-01-13T03:25:03.685Z,6.6
2018-01-13T03:26:05.068Z,6.6
2018-01-13T03:27:06.454Z,6.8
2018-01-13T03:28:07.840Z,6.6
2018-01-13T03:29:09.298Z,6.6
2018-01-13T03:30:10.712Z,6.7
2018-01-13T03:31:12.096Z,6.8
2018-01-13T03:32:13.483Z,6.7
2018-01-13T03:33:14.868Z,6.7
2018-01-13T03:34:16.253Z,6.6
2018-01-13T03:35:17.641Z,6.7
2018-01-13T03:36:19.024Z,6.7
2018-01-13T03:37:20.405Z,6.6
2018-01-13T03:38:21.789Z,6.7
2018-01-13T03:39:23.176Z,6.7
2018-01-13T03:40:24.560Z,6.8
2018-01-13T03:41:25.943Z,6.7
2018-01-13T03:42:27.328Z,6.8
2018-01-13T03:43:28.712Z,6.7
2018-01-13T03:44:30.096Z,6.8
2018-01-13T03:45:31.480Z,6.8
2018-01-13T03:46:32.868Z,6.7
2018-01-13T03:47:34.250Z,6.7
2018-01-13T03:48:35.637Z,6.7
2018-01-13T03:49:37.019Z,6.7
2018-01-13T03:50:38.406Z,6.7
2018-01-13T03:51:39.790Z,6.7
2018-01-13T03:52:41.172Z,6.7
2018-01-13T03:53:42.557Z,6.8
2018-01-13T03:54:43.941Z,6.7
2018-01-13T03:55:45.325Z,6.7
2018-01-13T03:56:46.713Z,6.7
2018-01-13T03:57:48.097Z,6.7
2018-01-13T03:58:49.480Z,6.8
2018-01-13T03:59:50.865Z,6.7
2018-01-13T04:00:52.250Z,6.7
2018-01-13T04:01:53.633Z,6.7
2018-01-13T04:02:55.019Z,6.7
2018-01-13T04:03:56.404Z,6.7
2018-01-13T04:04:57.788Z,6.7
2018-01-13T04:05:59.170Z,6.8
2018-01-13T04:07:00.553Z,6.7
2018-01-13T04:08:01.939Z,6.7
2018-01-13T04:09:03.324Z,6.7
2018-01-13T04:10:04.712Z,6.7
2018-01-13T04:11:06.102Z,6.8
2018-01-13T04:12:07.483Z,6.7
2018-01-13T04:13:08.959Z,6.7
2018-01-13T04:14:10.340Z,6.8
2018-01-13T04:15:11.725Z,6.7
2018-01-13T04:16:13.112Z,6.7
2018-01-13T04:17:14.497Z,6.7
2018-01-13T04:18:15.884Z,6.7
2018-01-13T04:19:17.267Z,6.7
2018-01-13T04:20:18.650Z,6.7
2018-01-13T04:21:20.032Z,6.6
2018-01-13T04:22:21.414Z,6.7
2018-01-13T04:23:22.799Z,6.6
2018-01-13T04:24:24.188Z,6.7
2018-01-13T04:25:25.571Z,6.7
2018-01-13T04:26:26.954Z,6.8
2018-01-13T04:27:28.340Z,6.6
2018-01-13T04:28:29.745Z,6.7
2018-01-13T04:29:31.128Z,6.6
2018-01-13T04:30:32.513Z,6.6
2018-01-13T04:31:33.900Z,6.7
2018-01-13T04:32:35.285Z,6.6
2018-01-13T04:33:36.670Z,6.6
2018-01-13T04:34:38.050Z,6.6
2018-01-13T04:35:39.436Z,6.6
2018-01-13T04:36:40.821Z,6.6
2018-01-13T04:37:42.205Z,6.5
2018-01-13T04:38:43.597Z,6.6
2018-01-13T04:39:44.983Z,6.5
2018-01-13T04:40:46.367Z,6.5
2018-01-13T04:41:47.749Z,6.5
2018-01-13T04:42:49.135Z,6.4
2018-01-13T04:43:50.517Z,6.4
2018-01-13T04:44:51.904Z,6.4
2018-01-13T04:45:53.289Z,6.4
2018-01-13T04:46:54.672Z,6.3
2018-01-13T04:47:56.059Z,6.4
2018-01-13T04:48:57.440Z,6.4
2018-01-13T04:49:58.823Z,6.3
2018-01-13T04:51:00.212Z,6.4
2018-01-13T04:52:01.598Z,6.4
2018-01-13T04:53:02.986Z,6.3
2018-01-13T04:54:04.372Z,6.3
2018-01-13T04:55:05.753Z,6.3
2018-01-13T04:56:07.146Z,6.3
2018-01-13T04:57:08.599Z,6.4
2018-01-13T04:58:09.981Z,6.3
2018-01-13T04:59:11.368Z,6.3
2018-01-13T05:00:12.753Z,6.3
2018-01-13T05:01:14.141Z,6.4
2018-01-13T05:02:15.524Z,6.4
2018-01-13T05:03:16.906Z,6.4
2018-01-13T05:04:18.292Z,6.3
2018-01-13T05:05:19.677Z,6.5
2018-01-13T05:06:21.062Z,6.3
2018-01-13T05:07:22.444Z,6.4
2018-01-13T05:08:23.833Z,6.4
2018-01-13T05:09:25.216Z,6.4
2018-01-13T05:10:26.598Z,6.3
2018-01-13T05:11:27.985Z,6.3
2018-01-13T05:12:29.369Z,6.4
2018-01-13T05:13:30.753Z,6.3
2018-01-13T05:14:32.140Z,6.4
2018-01-13T05:15:33.527Z,6.3
2018-01-13T05:16:34.908Z,6.3
2018-01-13T05:17:36.294Z,6.4
2018-01-13T05:18:37.680Z,6.3
2018-01-13T05:19:39.060Z,6.3
2018-01-13T05:20:40.447Z,6.3
2018-01-13T05:21:41.831Z,6.3
2018-01-13T05:22:43.216Z,6.3
2018-01-13T05:23:44.599Z,6.3
2018-01-13T05:24:45.983Z,6.3
2018-01-13T05:25:47.368Z,6.3
2018-01-13T05:26:48.749Z,6.3
2018-01-13T05:27:50.132Z,6.3
2018-01-13T05:28:51.516Z,6.3
2018-01-13T05:29:52.903Z,6.3
2018-01-13T05:30:54.286Z,6.3
2018-01-13T05:31:55.668Z,6.3
2018-01-13T05:32:57.054Z,6.3
2018-01-13T05:33:58.437Z,6.3
2018-01-13T05:34:59.819Z,6.4
2018-01-13T05:36:01.206Z,6.3
2018-01-13T05:37:02.593Z,6.4
2018-01-13T05:38:03.974Z,6.3
2018-01-13T05:39:05.357Z,6.4
2018-01-13T05:40:06.848Z,6.4
2018-01-13T05:41:08.238Z,6.3
2018-01-13T05:42:09.626Z,6.4
2018-01-13T05:43:11.010Z,6.4
2018-01-13T05:44:12.399Z,6.4
2018-01-13T05:45:13.781Z,6.4
2018-01-13T05:46:15.165Z,6.4
2018-01-13T05:47:16.547Z,6.4
2018-01-13T05:48:18.017Z,6.4
2018-01-13T05:49:19.406Z,6.5
2018-01-13T05:50:20.794Z,6.5
2018-01-13T05:51:22.180Z,6.5
2018-01-13T05:52:23.562Z,6.5
2018-01-13T05:53:24.946Z,6.5
2018-01-13T05:54:26.327Z,6.5
2018-01-13T05:55:27.712Z,6.6
2018-01-13T05:56:29.097Z,6.5
2018-01-13T05:57:30.483Z,6.6
2018-01-13T05:58:31.872Z,6.5
2018-01-13T05:59:33.256Z,6.6
2018-01-13T06:00:34.639Z,6.6
2018-01-13T06:01:36.022Z,6.5
2018-01-13T06:02:37.405Z,6.5
2018-01-13T06:03:38.792Z,6.7
2018-01-13T06:04:40.176Z,6.5
2018-01-13T06:05:41.561Z,6.7
2018-01-13T06:06:43.015Z,6.7
2018-01-13T06:07:44.399Z,6.6
2018-01-13T06:08:45.784Z,6.6
2018-01-13T06:09:47.167Z,6.7
2018-01-13T06:10:48.557Z,6.6
2018-01-13T06:11:49.941Z,6.7
2018-01-13T06:12:51.326Z,6.7
2018-01-13T06:13:52.707Z,6.7
2018-01-13T06:14:54.091Z,6.7
2018-01-13T06:15:55.475Z,6.7
2018-01-13T06:16:56.856Z,6.7
2018-01-13T06:17:58.242Z,6.8
2018-01-13T06:18:59.628Z,6.8
2018-01-13T06:20:01.016Z,6.8
2018-01-13T06:21:02.401Z,6.7
2018-01-13T06:22:03.784Z,6.7
2018-01-13T06:23:05.203Z,6.8
2018-01-13T06:24:06.603Z,6.8
2018-01-13T06:25:07.986Z,6.7
2018-01-13T06:26:09.370Z,6.8
2018-01-13T06:27:10.758Z,6.8
2018-01-13T06:28:12.142Z,6.8
2018-01-13T06:29:13.524Z,6.9
2018-01-13T06:30:14.912Z,6.8
2018-01-13T06:31:16.294Z,6.8
2018-01-13T06:32:17.680Z,6.8
2018-01-13T06:33:19.065Z,6.8
2018-01-13T06:34:20.452Z,6.9
2018-01-13T06:35:21.837Z,6.8
2018-01-13T06:36:23.221Z,6.9
2018-01-13T06:37:24.605Z,6.8
2018-01-13T06:38:25.993Z,6.8
2018-01-13T06:39:27.377Z,6.9
2018-01-13T06:40:28.763Z,6.8
2018-01-13T06:41:30.149Z,6.9
2018-01-13T06:42:31.533Z,7.0
2018-01-13T06:43:32.917Z,6.9
2018-01-13T06:44:34.299Z,6.9
2018-01-13T06:45:35.689Z,6.9
2018-01-13T06:46:37.073Z,6.9
2018-01-13T06:47:38.456Z,7.0
2018-01-13T06:48:39.845Z,7.0
2018-01-13T06:49:41.231Z,6.9
2018-01-13T06:50:42.613Z,6.9
2018-01-13T06:51:44.000Z,6.9
2018-01-13T06:52:45.385Z,7.0
2018-01-13T06:53:46.767Z,6.9
2018-01-13T06:54:48.152Z,7.0
2018-01-13T06:55:49.540Z,7.0
2018-01-13T06:56:50.921Z,7.0
2018-01-13T06:57:52.309Z,6.9
2018-01-13T06:58:53.690Z,7.0
2018-01-13T06:59:55.074Z,7.0
2018-01-13T07:00:56.459Z,7.0
2018-01-13T07:01:57.847Z,7.0
2018-01-13T07:02:59.231Z,7.0
2018-01-13T07:04:00.620Z,7.0
2018-01-13T07:05:02.004Z,7.0
2018-01-13T07:06:03.386Z,7.0
2018-01-13T07:07:04.852Z,7.0
2018-01-13T07:08:06.232Z,7.0
2018-01-13T07:09:07.620Z,7.0
2018-01-13T07:10:09.007Z,7.0
2018-01-13T07:11:10.394Z,7.1
2018-01-13T07:12:11.776Z,7.0
2018-01-13T07:13:13.160Z,7.1
2018-01-13T07:14:14.545Z,7.0
2018-01-13T07:15:15.929Z,7.1
2018-01-13T07:16:17.315Z,7.1
2018-01-13T07:17:18.703Z,7.1
2018-01-13T07:18:20.086Z,7.1
2018-01-13T07:19:21.471Z,7.1
2018-01-13T07:20:22.858Z,7.1
2018-01-13T07:21:24.240Z,7.1
2018-01-13T07:22:25.628Z,7.1
2018-01-13T07:23:27.015Z,7.1
2018-01-13T07:24:28.401Z,7.1
2018-01-13T07:25:29.866Z,7.1
2018-01-13T07:26:31.170Z,7.1
2018-01-13T07:27:32.558Z,7.2
2018-01-13T07:28:34.116Z,7.1
2018-01-13T07:29:35.504Z,7.1
2018-01-13T07:30:36.899Z,7.2
2018-01-13T07:31:38.287Z,7.1
2018-01-13T07:32:39.852Z,7.1
2018-01-13T07:33:41.239Z,7.2
2018-01-13T07:34:42.624Z,7.1
2018-01-13T07:35:44.009Z,7.3
2018-01-13T07:36:45.446Z,7.2
2018-01-13T07:37:46.834Z,7.2
2018-01-13T07:38:48.221Z,7.1
2018-01-13T07:39:49.605Z,7.2
2018-01-13T07:40:50.986Z,7.2
2018-01-13T07:41:52.377Z,7.2
2018-01-13T07:42:53.762Z,7.2
2018-01-13T07:43:55.145Z,7.2
2018-01-13T07:44:56.534Z,7.0
2018-01-13T07:45:57.924Z,7.1
2018-01-13T07:46:59.309Z,7.2
2018-01-13T07:48:00.692Z,7.2
2018-01-13T07:49:02.108Z,7.2
2018-01-13T07:50:03.540Z,7.2
2018-01-13T07:51:04.928Z,7.2
2018-01-13T07:52:06.314Z,7.2
2018-01-13T07:53:07.744Z,7.3
2018-01-13T07:54:09.092Z,7.3
2018-01-13T07:55:10.479Z,7.2
2018-01-13T07:56:11.868Z,7.3
2018-01-13T07:57:13.253Z,7.2
2018-01-13T07:58:14.643Z,7.4
2018-01-13T07:59:16.028Z,7.4
2018-01-13T08:00:17.419Z,7.3
2018-01-13T08:01:18.805Z,7.3
2018-01-13T08:02:20.189Z,7.3
2018-01-13T08:03:21.582Z,7.3
2018-01-13T08:04:22.964Z,7.4
2018-01-13T08:05:24.352Z,7.3
2018-01-13T08:06:25.736Z,7.4
2018-01-13T08:07:27.128Z,7.4
2018-01-13T08:08:28.510Z,7.4
2018-01-13T08:09:29.898Z,7.3
2018-01-13T08:10:31.283Z,7.4
2018-01-13T08:11:32.702Z,7.4
2018-01-13T08:12:34.093Z,7.3
2018-01-13T08:13:35.482Z,7.3
2018-01-13T08:14:36.871Z,7.4
2018-01-13T08:15:38.254Z,7.4
2018-01-13T08:16:39.644Z,7.4
2018-01-13T08:17:41.031Z,7.4
2018-01-13T08:18:42.415Z,7.4
2018-01-13T08:19:43.808Z,7.4
2018-01-13T08:20:45.198Z,7.5
2018-01-13T08:21:46.589Z,7.4
2018-01-13T08:22:47.976Z,7.4
2018-01-13T08:23:49.361Z,7.4
2018-01-13T08:24:50.806Z,7.4
2018-01-13T08:25:52.190Z,7.5
2018-01-13T08:26:53.579Z,7.5
2018-01-13T08:27:54.962Z,7.4
2018-01-13T08:28:56.356Z,7.4
2018-01-13T08:29:57.739Z,7.5
2018-01-13T08:30:59.124Z,7.4
2018-01-13T08:32:00.596Z,7.4
2018-01-13T08:33:02.001Z,7.5
2018-01-13T08:34:03.392Z,7.5
2018-01-13T08:35:04.782Z,7.6
2018-01-13T08:36:06.173Z,7.5
2018-01-13T08:37:07.556Z,7.5
2018-01-13T08:38:08.942Z,7.5
2018-01-13T08:39:10.328Z,7.6
2018-01-13T08:40:11.718Z,7.5
2018-01-13T08:41:13.107Z,7.5
2018-01-13T08:42:14.494Z,7.5
2018-01-13T08:43:15.884Z,7.4
2018-01-13T08:44:17.270Z,7.6
2018-01-13T08:45:18.655Z,7.5
2018-01-13T08:46:20.128Z,7.4
2018-01-13T08:47:21.606Z,7.5
2018-01-13T08:48:23.070Z,7.5
2018-01-13T08:49:24.524Z,7.4
2018-01-13T08:50:25.911Z,7.4
2018-01-13T08:51:27.301Z,7.4
2018-01-13T08:52:28.686Z,7.5
2018-01-13T08:53:30.073Z,7.4
2018-01-13T08:54:31.461Z,7.5
2018-01-13T08:55:32.849Z,7.5
2018-01-13T08:56:34.238Z,7.4
2018-01-13T08:57:35.629Z,7.4
2018-01-13T08:58:37.013Z,7.4
2018-01-13T08:59:38.400Z,7.3
2018-01-13T09:00:39.785Z,7.5
2018-01-13T09:01:41.171Z,7.5
2018-01-13T09:02:42.562Z,7.5
2018-01-13T09:03:43.948Z,7.4
2018-01-13T09:04:45.346Z,7.4
2018-01-13T09:05:46.725Z,7.4
2018-01-13T09:06:48.110Z,7.4
2018-01-13T09:07:49.498Z,7.4
2018-01-13T09:08:50.887Z,7.4
2018-01-13T09:09:52.275Z,7.4
2018-01-13T09:10:53.661Z,7.4
2018-01-13T09:11:55.101Z,7.3
2018-01-13T09:12:56.706Z,7.3
2018-01-13T09:13:58.426Z,7.2
2018-01-13T09:14:59.945Z,7.2
2018-01-13T09:16:01.359Z,7.3
2018-01-13T09:17:02.746Z,7.2
2018-01-13T09:18:04.133Z,7.3
2018-01-13T09:19:05.523Z,7.2
2018-01-13T09:20:06.910Z,7.3
2018-01-13T09:21:08.294Z,7.2
2018-01-13T09:22:09.680Z,7.3
2018-01-13T09:23:11.069Z,7.2
2018-01-13T09:24:12.455Z,7.2
2018-01-13T09:25:13.920Z,7.3
2018-01-13T09:26:15.305Z,7.3
2018-01-13T09:27:16.690Z,7.3
2018-01-13T09:28:18.077Z,7.4
2018-01-13T09:29:19.465Z,7.3
2018-01-13T09:30:20.862Z,7.4
2018-01-13T09:31:22.245Z,7.3
2018-01-13T09:32:23.633Z,7.4
2018-01-13T09:33:25.021Z,7.2
2018-01-13T09:34:26.417Z,7.4
2018-01-13T09:35:27.802Z,7.3
2018-01-13T09:36:29.191Z,7.4
2018-01-13T09:37:30.576Z,7.2
2018-01-13T09:38:31.973Z,7.3
2018-01-13T09:39:33.359Z,7.4
2018-01-13T09:40:34.749Z,7.3
2018-01-13T09:41:36.137Z,7.4
2018-01-13T09:42:37.522Z,7.2
2018-01-13T09:43:38.918Z,7.4
2018-01-13T09:44:40.305Z,7.3
2018-01-13T09:45:41.694Z,7.4
2018-01-13T09:46:43.082Z,7.2
2018-01-13T09:47:44.470Z,7.3
2018-01-13T09:48:45.857Z,7.2
2018-01-13T09:49:47.243Z,7.3
2018-01-13T09:50:48.631Z,7.4
2018-01-13T09:51:50.020Z,7.3
2018-01-13T09:52:51.405Z,7.3
2018-01-13T09:53:52.794Z,7.3
2018-01-13T09:54:54.183Z,7.2
2018-01-13T09:55:55.570Z,7.2
2018-01-13T09:56:56.957Z,7.2
2018-01-13T09:57:58.359Z,7.3
2018-01-13T09:58:59.745Z,7.3
2018-01-13T10:00:01.136Z,7.1
2018-01-13T10:01:02.530Z,7.1
2018-01-13T10:02:03.914Z,7.2
2018-01-13T10:03:05.303Z,7.3
2018-01-13T10:04:06.687Z,7.3
2018-01-13T10:05:08.075Z,7.4
2018-01-13T10:06:09.465Z,7.4
2018-01-13T10:07:10.855Z,7.4
2018-01-13T10:08:12.244Z,7.4
2018-01-13T10:09:13.636Z,7.4
2018-01-13T10:10:15.021Z,7.3
2018-01-13T10:11:16.407Z,7.3
2018-01-13T10:12:17.794Z,7.4
2018-01-13T10:13:19.179Z,7.3
2018-01-13T10:14:20.572Z,7.4
2018-01-13T10:15:21.959Z,7.4
2018-01-13T10:16:23.349Z,7.4
2018-01-13T10:17:24.738Z,7.4
2018-01-13T10:18:26.125Z,7.3
2018-01-13T10:19:27.513Z,7.3
2018-01-13T10:20:28.901Z,7.3
2018-01-13T10:21:30.288Z,7.4
2018-01-13T10:22:31.678Z,7.4
2018-01-13T10:23:33.066Z,7.4
2018-01-13T10:24:34.453Z,7.4
2018-01-13T10:25:35.841Z,7.4
2018-01-13T10:26:37.231Z,7.3
2018-01-13T10:27:38.617Z,7.3
2018-01-13T10:28:40.006Z,7.2
2018-01-13T10:29:41.396Z,7.1
2018-01-13T10:30:42.785Z,7.1
2018-01-13T10:31:44.180Z,7.1
2018-01-13T10:32:45.555Z,7.2
2018-01-13T10:33:46.940Z,7.1
2018-01-13T10:34:48.324Z,7.2
2018-01-13T10:35:49.715Z,7.1
2018-01-13T10:36:51.102Z,7.2
2018-01-13T10:37:52.493Z,7.1
2018-01-13T10:38:53.878Z,7.1
2018-01-13T10:39:55.264Z,7.1
2018-01-13T10:40:56.652Z,7.2
2018-01-13T10:41:58.037Z,7.2
2018-01-13T10:42:59.472Z,7.2
2018-01-13T10:44:00.880Z,7.2
2018-01-13T10:45:02.268Z,7.3
2018-01-13T10:46:03.655Z,7.2
2018-01-13T10:47:05.040Z,7.3
2018-01-13T10:48:06.423Z,7.3
2018-01-13T10:49:07.810Z,7.3
2018-01-13T10:50:09.197Z,7.3
2018-01-13T10:51:10.585Z,7.3
2018-01-13T10:52:11.975Z,7.2
2018-01-13T10:53:13.361Z,7.2
2018-01-13T10:54:14.748Z,7.2
2018-01-13T10:55:16.138Z,7.3
2018-01-13T10:56:17.526Z,7.2
2018-01-13T10:57:18.914Z,7.2
2018-01-13T10:58:20.303Z,7.2
2018-01-13T10:59:21.694Z,7.2
2018-01-13T11:00:23.158Z,7.2
2018-01-13T11:01:24.546Z,7.2
2018-01-13T11:02:25.931Z,7.2
2018-01-13T11:03:27.322Z,7.2
2018-01-13T11:04:28.712Z,7.2
2018-01-13T11:05:30.100Z,7.2
2018-01-13T11:06:31.490Z,7.2
2018-01-13T11:07:32.875Z,7.3
2018-01-13T11:08:34.266Z,7.2
2018-01-13T11:09:35.652Z,7.2
2018-01-13T11:10:37.041Z,7.2
2018-01-13T11:11:38.428Z,7.2
2018-01-13T11:12:39.819Z,7.2
2018-01-13T11:13:41.205Z,7.2
2018-01-13T11:14:42.593Z,7.3
2018-01-13T11:15:43.980Z,7.2
2018-01-13T11:16:45.366Z,7.2
2018-01-13T11:17:46.753Z,7.2
2018-01-13T11:18:48.145Z,7.2
2018-01-13T11:19:49.532Z,7.2
2018-01-13T11:20:50.920Z,7.2
2018-01-13T11:21:52.308Z,7.2
2018-01-13T11:22:53.695Z,7.3
2018-01-13T11:23:55.082Z,7.2
2018-01-13T11:24:56.472Z,7.3
2018-01-13T11:25:57.859Z,7.4
2018-01-13T11:26:59.248Z,7.4
2018-01-13T11:28:00.709Z,7.4
2018-01-13T11:29:02.113Z,7.4
2018-01-13T11:30:03.494Z,7.4
2018-01-13T11:31:04.881Z,7.3
2018-01-13T11:32:06.271Z,7.3
2018-01-13T11:33:07.658Z,7.3
2018-01-13T11:34:09.048Z,7.2
2018-01-13T11:35:10.435Z,7.4
2018-01-13T11:36:11.821Z,7.4
2018-01-13T11:37:13.206Z,7.4
2018-01-13T11:38:14.596Z,7.4
2018-01-13T11:39:15.983Z,7.6
2018-01-13T11:40:17.370Z,7.4
2018-01-13T11:41:18.756Z,7.5
2018-01-13T11:42:20.145Z,7.5
2018-01-13T11:43:21.535Z,7.4
2018-01-13T11:44:22.916Z,7.5
2018-01-13T11:45:24.307Z,7.5
2018-01-13T11:46:25.693Z,7.5
2018-01-13T11:47:27.081Z,7.5
2018-01-13T11:48:28.472Z,7.4
2018-01-13T11:49:29.862Z,7.4
2018-01-13T11:50:31.250Z,7.5
2018-01-13T11:51:32.634Z,7.4
2018-01-13T11:52:34.021Z,7.5
2018-01-13T11:53:35.410Z,7.6
2018-01-13T11:54:36.798Z,7.6
2018-01-13T11:55:38.189Z,7.6
2018-01-13T11:56:39.580Z,7.6
2018-01-13T11:57:40.964Z,7.6
2018-01-13T11:58:42.356Z,7.6
2018-01-13T11:59:43.745Z,7.7
2018-01-13T12:00:45.133Z,7.6
2018-01-13T12:01:46.521Z,7.6
2018-01-13T12:02:47.911Z,7.6
2018-01-13T12:03:49.300Z,7.5
2018-01-13T12:04:50.687Z,7.5
2018-01-13T12:05:52.079Z,7.6
2018-01-13T12:06:53.465Z,7.6
2018-01-13T12:07:54.852Z,7.6
2018-01-13T12:08:56.243Z,7.6
2018-01-13T12:09:57.634Z,7.6
2018-01-13T12:10:59.044Z,7.6
2018-01-13T12:12:00.409Z,7.6
2018-01-13T12:13:01.797Z,7.6
2018-01-13T12:14:03.226Z,7.6
2018-01-13T12:15:04.626Z,7.7
2018-01-13T12:16:06.016Z,7.6
2018-01-13T12:17:07.404Z,7.7
2018-01-13T12:18:08.795Z,7.7
2018-01-13T12:19:10.184Z,7.7
2018-01-13T12:20:11.574Z,7.9
2018-01-13T12:21:12.961Z,8.2
2018-01-13T12:22:14.353Z,8.3
2018-01-13T12:23:15.741Z,9.0
2018-01-13T12:24:17.134Z,8.8
2018-01-13T12:25:18.527Z,8.7
2018-01-13T12:26:19.916Z,8.5
2018-01-13T12:27:21.306Z,8.4
2018-01-13T12:28:22.694Z,8.4
2018-01-13T12:29:24.080Z,8.4
2018-01-13T12:30:25.472Z,8.3
2018-01-13T12:31:26.866Z,8.3
2018-01-13T12:32:28.256Z,8.7
2018-01-13T12:33:29.643Z,9.1
2018-01-13T12:34:31.032Z,8.8
2018-01-13T12:35:32.422Z,8.6
2018-01-13T12:36:33.816Z,9.4
2018-01-13T12:37:35.207Z,9.5
2018-01-13T12:38:36.611Z,9.8
2018-01-13T12:39:38.000Z,9.1
2018-01-13T12:40:39.391Z,8.9
2018-01-13T12:41:40.781Z,8.8
2018-01-13T12:42:42.177Z,8.8
2018-01-13T12:43:43.567Z,8.7
2018-01-13T12:44:44.956Z,8.7
2018-01-13T12:45:46.349Z,8.8
2018-01-13T12:46:47.744Z,9.0
2018-01-13T12:47:49.173Z,9.1
2018-01-13T12:48:50.596Z,9.0
2018-01-13T12:49:51.981Z,8.9
2018-01-13T12:50:53.371Z,8.8
2018-01-13T12:51:54.762Z,8.6
2018-01-13T12:52:56.155Z,8.5
2018-01-13T12:53:57.545Z,8.5
2018-01-13T12:54:58.933Z,8.3
2018-01-13T12:56:00.325Z,8.3
2018-01-13T12:57:01.714Z,8.4
2018-01-13T12:58:03.196Z,8.4
2018-01-13T12:59:04.647Z,8.4
2018-01-13T13:00:06.065Z,8.3
2018-01-13T13:01:07.460Z,8.4
2018-01-13T13:02:08.849Z,8.2
2018-01-13T13:03:10.235Z,8.3
2018-01-13T13:04:11.625Z,8.2
2018-01-13T13:05:13.012Z,8.3
2018-01-13T13:06:14.400Z,8.4
2018-01-13T13:07:15.790Z,8.4
2018-01-13T13:08:17.184Z,8.4
2018-01-13T13:09:18.572Z,8.3
2018-01-13T13:10:19.957Z,8.3
2018-01-13T13:11:21.347Z,8.3
2018-01-13T13:12:22.734Z,8.3
2018-01-13T13:13:24.126Z,8.1
2018-01-13T13:14:25.516Z,8.3
2018-01-13T13:15:26.910Z,8.2
2018-01-13T13:16:28.297Z,8.3
2018-01-13T13:17:29.686Z,8.2
2018-01-13T13:18:31.074Z,8.4
2018-01-13T13:19:32.465Z,8.4
2018-01-13T13:20:33.854Z,8.4
2018-01-13T13:21:35.243Z,8.4
2018-01-13T13:22:36.636Z,8.4
2018-01-13T13:23:38.022Z,8.4
2018-01-13T13:24:39.409Z,8.4
2018-01-13T13:25:40.800Z,8.5
2018-01-13T13:26:42.186Z,8.5
2018-01-13T13:27:43.577Z,8.4
2018-01-13T13:28:44.967Z,8.4
2018-01-13T13:29:46.358Z,8.4
2018-01-13T13:30:47.745Z,8.4
2018-01-13T13:31:49.133Z,8.4
2018-01-13T13:32:50.522Z,8.4
2018-01-13T13:33:51.912Z,8.2
2018-01-13T13:34:53.300Z,8.2
2018-01-13T13:35:54.688Z,8.2
2018-01-13T13:36:56.078Z,8.1
2018-01-13T13:37:57.465Z,8.2
2018-01-13T13:38:58.852Z,8.1
2018-01-13T13:40:00.242Z,8.3
2018-01-13T13:41:01.631Z,8.2
2018-01-13T13:42:03.020Z,8.3
2018-01-13T13:43:04.411Z,8.3
2018-01-13T13:44:05.801Z,8.2
2018-01-13T13:45:07.192Z,8.2
2018-01-13T13:46:08.604Z,8.1
2018-01-13T13:47:09.998Z,8.2
2018-01-13T13:48:11.387Z,8.2
2018-01-13T13:49:12.781Z,8.2
2018-01-13T13:50:14.169Z,8.3
2018-01-13T13:51:15.560Z,8.2
2018-01-13T13:52:16.944Z,8.2
2018-01-13T13:53:18.330Z,8.0
2018-01-13T13:54:19.720Z,8.1
2018-01-13T13:55:21.108Z,8.1
2018-01-13T13:56:22.497Z,8.1
2018-01-13T13:57:23.887Z,8.1
2018-01-13T13:58:25.276Z,8.0
2018-01-13T13:59:26.700Z,8.0
2018-01-13T14:00:28.052Z,8.0
2018-01-13T14:01:29.439Z,8.1
2018-01-13T14:02:30.829Z,8.1
2018-01-13T14:03:32.219Z,8.1
2018-01-13T14:04:33.607Z,8.1
2018-01-13T14:05:34.998Z,8.0